Time;durP1;ratioP1;P1;durP2;ratioP2;P2;SDS_P1;SDS_P2;PMS_P1;PMS_P2;Temp;Humidity;BMP_temperature;BMP_pressure;BME280_temperature;BME280_humidity;BME280_pressure;Samples;Min_cycle;Max_cycle;Signal;HPM_P1;HPM_P2
2021/01/27 00:04:47;;;;;;;4.13;3.57;;;4.40;42.40;;;;;;10454539;28;20225;-72
2021/01/27 00:09:50;;;;;;;3.70;3.30;;;4.40;42.60;;;;;;10457523;28;20225;-71
2021/01/27 00:14:52;;;;;;;3.80;3.20;;;4.40;42.60;;;;;;10454519;28;20235;-71
2021/01/27 00:19:54;;;;;;;3.90;3.50;;;4.40;42.60;;;;;;10455363;28;20221;-72
2021/01/27 00:24:57;;;;;;;4.47;2.87;;;4.40;42.60;;;;;;10458089;28;20235;-72
2021/01/27 00:30:00;;;;;;;3.17;2.93;;;4.40;42.60;;;;;;10448164;28;20229;-71
2021/01/27 00:35:03;;;;;;;2.80;2.60;;;4.40;42.20;;;;;;10453525;28;20274;-72
2021/01/27 00:40:08;;;;;;;3.03;2.73;;;4.40;42.20;;;;;;10462528;28;20229;-72
2021/01/27 00:45:11;;;;;;;4.40;2.97;;;4.40;42.20;;;;;;10446943;28;20259;-72
2021/01/27 00:50:14;;;;;;;4.53;3.27;;;4.50;42.30;;;;;;10452795;28;20225;-72
2021/01/27 00:55:19;;;;;;;3.47;2.70;;;4.50;42.30;;;;;;10450160;28;20233;-72
2021/01/27 01:00:24;;;;;;;3.30;3.00;;;4.50;42.40;;;;;;10459073;28;20608;-72
2021/01/27 01:05:28;;;;;;;3.13;2.83;;;4.50;42.30;;;;;;10462766;28;20605;-72
2021/01/27 01:10:33;;;;;;;3.83;3.10;;;4.50;42.30;;;;;;10468632;28;20601;-72
2021/01/27 01:15:36;;;;;;;3.77;3.30;;;4.50;42.20;;;;;;10460297;28;20220;-72
2021/01/27 01:20:38;;;;;;;5.07;3.30;;;4.50;42.10;;;;;;10461346;28;20236;-72
2021/01/27 01:25:42;;;;;;;3.80;3.33;;;4.50;42.30;;;;;;10465270;28;20221;-72
2021/01/27 01:30:46;;;;;;;3.30;3.00;;;4.50;42.20;;;;;;10459775;28;20327;-72
2021/01/27 01:35:50;;;;;;;3.33;3.03;;;4.50;42.10;;;;;;10474077;28;20232;-72
2021/01/27 01:40:55;;;;;;;6.83;3.10;;;4.40;41.90;;;;;;10470550;28;20243;-72
2021/01/27 01:46:00;;;;;;;3.70;2.93;;;4.40;41.90;;;;;;10455293;28;20799;-72
2021/01/27 01:51:09;;;;;;;3.47;3.03;;;4.40;41.80;;;;;;10455500;28;20582;-73
2021/01/27 01:56:15;;;;;;;3.00;2.80;;;4.40;41.70;;;;;;10462070;28;20229;-73
2021/01/27 02:01:20;;;;;;;3.10;2.90;;;4.40;41.60;;;;;;10462851;28;20300;-72
2021/01/27 02:06:23;;;;;;;3.20;2.90;;;4.30;41.50;;;;;;10469268;28;20228;-73
2021/01/27 02:11:49;;;;;;;3.73;3.10;;;4.30;41.40;;;;;;10460415;28;20232;-72
2021/01/27 02:16:58;;;;;;;3.53;3.20;;;4.20;41.20;;;;;;10461637;28;20233;-73
2021/01/27 02:22:35;;;;;;;3.73;3.20;;;4.20;41.30;;;;;;10458422;28;20740;-72
2021/01/27 02:27:43;;;;;;;3.30;3.00;;;4.10;41.20;;;;;;10464073;28;20229;-72
2021/01/27 02:33:36;;;;;;;3.37;2.97;;;4.10;41.50;;;;;;10464162;28;20259;-72
2021/01/27 02:38:46;;;;;;;3.73;3.33;;;4.10;41.40;;;;;;10404255;28;20220;-72
2021/01/27 02:43:53;;;;;;;6.23;3.27;;;4.10;41.70;;;;;;10460945;28;20236;-72
2021/01/27 02:49:00;;;;;;;3.60;3.30;;;4.10;41.70;;;;;;10464344;28;20228;-72
2021/01/27 02:54:11;;;;;;;4.00;3.20;;;4.10;41.50;;;;;;10461089;28;20229;-72
2021/01/27 02:59:32;;;;;;;3.57;3.00;;;4.10;41.50;;;;;;10463165;28;20248;-72
2021/01/27 03:04:39;;;;;;;4.93;3.37;;;4.10;41.50;;;;;;10457448;28;20701;-71
2021/01/27 03:09:47;;;;;;;4.40;4.00;;;4.10;41.30;;;;;;10453270;28;20240;-71
2021/01/27 03:14:49;;;;;;;4.53;3.40;;;4.10;41.20;;;;;;10462947;28;20228;-71
2021/01/27 03:19:57;;;;;;;3.67;3.30;;;4.10;41.20;;;;;;10460258;28;20229;-71
2021/01/27 03:25:07;;;;;;;3.90;3.30;;;4.10;41.10;;;;;;10454158;28;20600;-71
2021/01/27 03:30:12;;;;;;;4.67;3.57;;;4.10;41.00;;;;;;10466664;28;20224;-71
2021/01/27 03:35:24;;;;;;;4.10;3.67;;;4.00;40.90;;;;;;10456747;28;20618;-71
2021/01/27 03:40:28;;;;;;;4.90;3.20;;;4.00;40.80;;;;;;10465546;28;20229;-71
2021/01/27 03:45:36;;;;;;;3.83;3.43;;;3.90;40.70;;;;;;10454885;28;20308;-71
2021/01/27 03:50:40;;;;;;;4.43;3.33;;;3.90;40.90;;;;;;10460615;28;20217;-71
2021/01/27 03:55:49;;;;;;;3.30;3.00;;;3.80;40.90;;;;;;10460301;28;20237;-71
2021/01/27 04:00:59;;;;;;;3.30;3.00;;;3.80;41.00;;;;;;10453405;28;20232;-71
2021/01/27 04:06:01;;;;;;;3.40;3.10;;;3.70;40.90;;;;;;10457180;28;20229;-73
2021/01/27 04:11:06;;;;;;;3.13;2.83;;;3.60;40.60;;;;;;10449734;28;20225;-71
2021/01/27 04:16:08;;;;;;;4.23;3.20;;;3.50;40.60;;;;;;10457836;28;20286;-71
2021/01/27 04:21:11;;;;;;;4.63;3.40;;;3.40;40.50;;;;;;10447778;28;20241;-71
2021/01/27 04:26:14;;;;;;;3.87;3.30;;;3.30;40.60;;;;;;10467470;28;20224;-71
2021/01/27 04:31:17;;;;;;;5.13;3.57;;;3.20;40.50;;;;;;10452394;28;20243;-71
2021/01/27 04:36:20;;;;;;;5.27;3.73;;;3.10;40.50;;;;;;10471274;28;20261;-71
2021/01/27 04:41:23;;;;;;;4.33;3.93;;;3.10;40.30;;;;;;10455336;28;20311;-71
2021/01/27 04:46:29;;;;;;;3.50;3.20;;;3.10;40.20;;;;;;10460440;28;20228;-71
2021/01/27 04:51:37;;;;;;;3.87;3.07;;;3.10;39.60;;;;;;10449934;28;20248;-71
2021/01/27 04:57:22;;;;;;;3.67;3.20;;;2.80;39.30;;;;;;10447756;28;20240;-71
2021/01/27 05:02:41;;;;;;;4.33;3.40;;;2.50;39.30;;;;;;10457155;28;20222;-71
2021/01/27 05:08:01;;;;;;;4.10;3.50;;;2.30;39.80;;;;;;10469838;28;20601;-71
2021/01/27 05:13:09;;;;;;;3.90;3.27;;;2.20;39.70;;;;;;10451942;28;20225;-71
2021/01/27 05:18:13;;;;;;;3.90;3.50;;;2.20;39.80;;;;;;10450994;28;20725;-71
2021/01/27 05:23:15;;;;;;;5.37;3.67;;;2.20;39.70;;;;;;10457689;28;20232;-71
2021/01/27 05:28:24;;;;;;;6.17;3.93;;;2.30;39.70;;;;;;10456625;28;20241;-71
2021/01/27 05:33:42;;;;;;;5.00;4.50;;;2.20;39.50;;;;;;10452035;28;20930;-70
2021/01/27 05:38:45;;;;;;;5.97;4.60;;;2.20;39.40;;;;;;10456528;28;20233;-71
2021/01/27 05:43:49;;;;;;;7.47;5.00;;;2.20;40.20;;;;;;10458950;28;20229;-71
2021/01/27 05:48:52;;;;;;;4.73;4.33;;;2.10;39.30;;;;;;10464957;28;20712;-70
2021/01/27 05:53:54;;;;;;;4.03;3.63;;;2.20;39.50;;;;;;10467165;28;20232;-70
2021/01/27 05:59:04;;;;;;;5.30;4.20;;;2.20;39.60;;;;;;10459701;28;20237;-71
2021/01/27 06:04:22;;;;;;;4.40;4.00;;;2.00;39.20;;;;;;10467850;28;20228;-71
2021/01/27 06:09:41;;;;;;;4.20;3.80;;;2.00;39.20;;;;;;10459185;28;20935;-71
2021/01/27 06:14:45;;;;;;;3.57;3.27;;;1.90;39.00;;;;;;10459776;28;20235;-71
2021/01/27 06:20:04;;;;;;;3.93;3.53;;;1.80;39.30;;;;;;10468026;28;20264;-70
2021/01/27 06:25:27;;;;;;;5.00;4.50;;;1.90;39.30;;;;;;10467696;28;20240;-71
2021/01/27 06:30:43;;;;;;;7.87;5.30;;;1.70;38.80;;;;;;10475053;28;20231;-71
2021/01/27 06:36:08;;;;;;;11.37;9.33;;;1.70;38.90;;;;;;10472459;28;20604;-71
2021/01/27 06:41:30;;;;;;;8.73;6.90;;;1.60;38.90;;;;;;10459112;28;20231;-71
2021/01/27 06:46:52;;;;;;;8.50;6.70;;;1.50;38.90;;;;;;10463025;28;20657;-70
2021/01/27 06:52:20;;;;;;;6.67;5.87;;;1.40;38.70;;;;;;10469112;28;20658;-70
2021/01/27 06:57:28;;;;;;;26.77;18.47;;;1.40;38.80;;;;;;10447816;28;20239;-71
2021/01/27 07:03:10;;;;;;;27.30;19.47;;;1.30;38.80;;;;;;10469265;28;20225;-71
2021/01/27 07:08:28;;;;;;;15.17;11.17;;;1.20;38.80;;;;;;10466819;28;20235;-71
2021/01/27 07:13:55;;;;;;;11.77;8.70;;;1.30;39.10;;;;;;10463411;28;20231;-73
2021/01/27 07:19:17;;;;;;;10.00;7.13;;;1.10;39.00;;;;;;10455556;28;20226;-73
2021/01/27 07:24:25;;;;;;;8.53;6.00;;;1.20;39.30;;;;;;10467104;28;20221;-72
2021/01/27 07:29:32;;;;;;;8.50;5.67;;;1.20;39.30;;;;;;10468048;28;20228;-72
2021/01/27 07:34:41;;;;;;;6.70;4.93;;;1.10;39.50;;;;;;10459878;28;20316;-73
2021/01/27 07:39:54;;;;;;;7.03;5.40;;;1.20;39.60;;;;;;10467798;28;20251;-73
2021/01/27 07:44:59;;;;;;;6.10;4.53;;;1.20;39.60;;;;;;10464622;28;20235;-69
2021/01/27 07:50:01;;;;;;;6.50;4.37;;;1.20;40.40;;;;;;10451075;28;20232;-68
2021/01/27 07:55:14;;;;;;;6.13;5.57;;;1.20;40.10;;;;;;10456839;28;20274;-68
2021/01/27 08:00:21;;;;;;;6.37;5.57;;;1.30;40.20;;;;;;10455645;28;20591;-68
2021/01/27 08:05:25;;;;;;;7.67;5.70;;;1.30;40.00;;;;;;10472655;28;20233;-68
2021/01/27 08:10:31;;;;;;;6.93;5.73;;;1.30;40.00;;;;;;10464568;28;20737;-73
2021/01/27 08:15:58;;;;;;;7.30;6.03;;;1.40;40.10;;;;;;10460170;28;20248;-73
2021/01/27 08:21:23;;;;;;;7.03;5.67;;;1.40;40.20;;;;;;10473750;28;20465;-69
2021/01/27 08:26:54;;;;;;;6.70;5.77;;;1.50;39.90;;;;;;10465136;28;20244;-76
2021/01/27 08:32:25;;;;;;;8.10;5.83;;;1.60;40.00;;;;;;10459963;28;20605;-71
2021/01/27 08:37:31;;;;;;;7.87;6.03;;;1.60;40.40;;;;;;10456867;28;20579;-71
2021/01/27 08:42:41;;;;;;;8.97;6.13;;;1.70;40.50;;;;;;10463566;28;20230;-70
2021/01/27 08:47:44;;;;;;;8.17;6.87;;;1.80;40.50;;;;;;10459517;28;20236;-70
2021/01/27 08:52:47;;;;;;;13.23;9.57;;;2.00;40.40;;;;;;10460479;28;20771;-70
2021/01/27 08:58:17;;;;;;;9.67;6.83;;;2.10;41.10;;;;;;10453445;28;20233;-71
2021/01/27 09:03:59;;;;;;;8.77;6.87;;;2.20;40.50;;;;;;10459921;28;20687;-71
2021/01/27 09:09:23;;;;;;;9.27;6.33;;;2.30;40.50;;;;;;10465884;28;20239;-71
2021/01/27 09:14:26;;;;;;;7.90;6.27;;;2.40;40.60;;;;;;10462508;28;20282;-70
2021/01/27 09:19:31;;;;;;;6.97;6.27;;;2.60;40.80;;;;;;10461295;28;20234;-70
2021/01/27 09:24:38;;;;;;;8.83;5.20;;;2.60;40.80;;;;;;10459491;28;20228;-70
2021/01/27 09:29:41;;;;;;;6.70;4.97;;;2.70;40.50;;;;;;10470976;28;20229;-70
2021/01/27 09:34:45;;;;;;;5.33;4.57;;;2.80;40.50;;;;;;10470591;28;20232;-68
2021/01/27 09:39:52;;;;;;;5.90;4.90;;;3.00;44.00;;;;;;10460067;28;20614;-71
2021/01/27 09:45:01;;;;;;;5.37;4.50;;;3.30;43.60;;;;;;10460872;28;20229;-71
2021/01/27 09:50:05;;;;;;;5.07;4.10;;;3.70;41.70;;;;;;10454864;28;20235;-70
2021/01/27 09:55:11;;;;;;;4.40;3.57;;;3.90;41.40;;;;;;10462976;28;20233;-71
2021/01/27 10:00:28;;;;;;;7.30;4.10;;;4.00;40.60;;;;;;10459927;28;20221;-71
2021/01/27 10:05:36;;;;;;;5.27;4.13;;;4.10;39.90;;;;;;10463356;28;20274;-71
2021/01/27 10:10:39;;;;;;;4.80;4.13;;;4.10;40.00;;;;;;10464326;28;21113;-71
2021/01/27 10:15:42;;;;;;;5.27;4.33;;;4.10;40.10;;;;;;10464296;27;20247;-71
2021/01/27 10:20:45;;;;;;;5.03;4.30;;;4.10;40.00;;;;;;10455232;28;20235;-71
2021/01/27 10:25:48;;;;;;;5.33;4.80;;;4.10;39.90;;;;;;10459127;28;20776;-71
2021/01/27 10:30:57;;;;;;;6.37;4.70;;;4.10;40.70;;;;;;10464062;28;20233;-71
2021/01/27 10:36:20;;;;;;;8.63;6.30;;;4.10;39.50;;;;;;10454006;28;20519;-71
2021/01/27 10:41:22;;;;;;;9.70;7.07;;;4.10;39.80;;;;;;10463852;28;20217;-69
2021/01/27 10:46:32;;;;;;;8.13;5.47;;;4.10;39.80;;;;;;10467519;28;20252;-71
2021/01/27 10:51:35;;;;;;;6.23;5.07;;;4.20;39.60;;;;;;10463675;28;20256;-71
2021/01/27 10:56:37;;;;;;;6.50;5.67;;;4.20;39.70;;;;;;10454848;28;20640;-69
2021/01/27 11:01:40;;;;;;;7.37;4.90;;;4.30;39.90;;;;;;10462562;28;20231;-69
2021/01/27 11:06:44;;;;;;;4.17;3.60;;;4.30;39.70;;;;;;10467508;28;20600;-69
2021/01/27 11:11:46;;;;;;;3.33;2.60;;;4.40;39.70;;;;;;10461607;28;20334;-69
2021/01/27 11:16:49;;;;;;;4.47;2.70;;;4.40;39.50;;;;;;10462157;28;20239;-69
2021/01/27 11:21:51;;;;;;;5.60;3.63;;;4.50;39.60;;;;;;10455231;28;20263;-69
2021/01/27 11:26:54;;;;;;;2.77;2.57;;;4.60;39.60;;;;;;10456497;28;20743;-69
2021/01/27 11:31:57;;;;;;;3.23;2.93;;;4.60;39.60;;;;;;10454267;28;20224;-70
2021/01/27 11:36:59;;;;;;;4.47;2.70;;;4.70;39.60;;;;;;10460766;28;20225;-69
2021/01/27 11:42:01;;;;;;;4.20;3.80;;;4.80;39.50;;;;;;10466265;28;20732;-70
2021/01/27 11:47:05;;;;;;;6.33;5.13;;;4.80;39.50;;;;;;10471391;28;20259;-70
2021/01/27 11:52:08;;;;;;;4.23;3.63;;;4.90;39.40;;;;;;10467226;28;20281;-70
2021/01/27 11:57:10;;;;;;;3.03;2.70;;;5.00;39.40;;;;;;10462553;28;20229;-69
2021/01/27 12:02:14;;;;;;;3.20;2.90;;;5.00;39.40;;;;;;10466782;28;20219;-69
2021/01/27 12:07:17;;;;;;;3.37;3.07;;;5.10;39.30;;;;;;10466762;28;20734;-69
2021/01/27 12:12:19;;;;;;;9.03;7.00;;;5.10;39.00;;;;;;10455373;28;20527;-69
2021/01/27 12:17:23;;;;;;;3.80;3.30;;;5.20;39.20;;;;;;10457105;28;20233;-69
2021/01/27 12:22:26;;;;;;;4.10;3.67;;;5.20;38.90;;;;;;10443874;28;20225;-69
2021/01/27 12:27:28;;;;;;;4.30;3.90;;;5.20;39.10;;;;;;10450846;28;20232;-69
2021/01/27 12:32:31;;;;;;;3.63;3.33;;;5.20;39.20;;;;;;10457058;28;20233;-69
2021/01/27 12:37:33;;;;;;;4.77;3.23;;;5.30;38.90;;;;;;10465372;28;20816;-69
2021/01/27 12:42:36;;;;;;;2.80;2.60;;;5.30;38.90;;;;;;10451855;28;20216;-68
2021/01/27 12:47:39;;;;;;;3.30;3.00;;;5.30;38.80;;;;;;10454840;28;20607;-68
2021/01/27 12:52:41;;;;;;;3.20;2.40;;;5.30;38.60;;;;;;10457514;28;20994;-68
2021/01/27 12:57:45;;;;;;;2.40;2.20;;;5.30;38.60;;;;;;10455731;28;20712;-68
2021/01/27 13:02:49;;;;;;;4.10;2.37;;;5.30;38.40;;;;;;10466522;28;20577;-68
2021/01/27 13:07:52;;;;;;;3.43;2.20;;;5.30;38.50;;;;;;10481654;28;20243;-68
2021/01/27 13:12:54;;;;;;;2.57;2.27;;;5.30;38.50;;;;;;10470222;28;20220;-68
2021/01/27 13:17:58;;;;;;;2.30;1.83;;;5.30;38.40;;;;;;10472180;28;20335;-69
2021/01/27 13:23:01;;;;;;;3.10;2.60;;;5.20;38.50;;;;;;10471840;28;20328;-69
2021/01/27 13:28:04;;;;;;;2.20;2.00;;;5.10;38.70;;;;;;10429799;28;20244;-69
2021/01/27 13:33:10;;;;;;;2.27;2.00;;;5.20;38.70;;;;;;10427416;28;20225;-69
2021/01/27 13:38:14;;;;;;;2.90;2.60;;;5.20;38.70;;;;;;10429106;28;20229;-69
2021/01/27 13:43:16;;;;;;;2.57;2.37;;;5.20;38.90;;;;;;10416312;28;20233;-69
2021/01/27 13:48:20;;;;;;;3.13;2.30;;;5.30;38.90;;;;;;10420414;28;20862;-70
2021/01/27 13:53:22;;;;;;;3.17;2.77;;;5.30;38.70;;;;;;10418695;28;20228;-69
2021/01/27 13:58:24;;;;;;;4.93;3.43;;;5.30;38.80;;;;;;10416193;28;20812;-69
2021/01/27 14:03:27;;;;;;;5.30;4.77;;;5.30;38.80;;;;;;10422213;28;20235;-69
2021/01/27 14:08:30;;;;;;;3.63;3.33;;;5.30;38.80;;;;;;10420427;28;20304;-69
2021/01/27 14:13:32;;;;;;;4.33;2.93;;;5.30;38.90;;;;;;10419042;28;20607;-68
2021/01/27 14:18:35;;;;;;;4.53;2.50;;;5.30;39.10;;;;;;10417571;28;20225;-68
2021/01/27 14:23:37;;;;;;;2.60;2.40;;;5.30;38.90;;;;;;10418553;28;20645;-68
2021/01/27 14:28:39;;;;;;;4.33;3.47;;;5.30;39.00;;;;;;10425413;28;20221;-68
2021/01/27 14:33:43;;;;;;;3.07;2.87;;;5.30;39.10;;;;;;10437625;28;20604;-68
2021/01/27 14:38:46;;;;;;;3.77;2.50;;;5.30;38.90;;;;;;10440662;28;20321;-68
2021/01/27 14:43:48;;;;;;;1.70;1.60;;;5.30;39.00;;;;;;10416379;28;20698;-68
2021/01/27 14:48:51;;;;;;;2.07;1.77;;;5.30;39.10;;;;;;10424694;28;20244;-68
2021/01/27 14:53:54;;;;;;;1.57;1.47;;;5.20;39.20;;;;;;10420623;28;20245;-68
2021/01/27 14:58:56;;;;;;;2.00;1.60;;;5.10;39.40;;;;;;10430941;28;20610;-68
2021/01/27 15:03:59;;;;;;;2.60;1.73;;;4.90;39.50;;;;;;10427095;28;20217;-69
2021/01/27 15:09:01;;;;;;;1.83;1.53;;;4.80;39.80;;;;;;10424373;28;20247;-70
2021/01/27 15:14:03;;;;;;;1.60;1.50;;;4.70;39.90;;;;;;10424024;28;20229;-70
2021/01/27 15:19:06;;;;;;;1.80;1.70;;;4.70;40.20;;;;;;10425307;28;20225;-69
2021/01/27 15:24:09;;;;;;;1.57;1.47;;;4.70;40.20;;;;;;10428771;28;20591;-70
2021/01/27 15:29:12;;;;;;;1.27;1.23;;;4.70;40.10;;;;;;10425308;28;20709;-69
2021/01/27 15:34:15;;;;;;;1.73;1.63;;;4.60;40.20;;;;;;10464585;28;20301;-69
2021/01/27 15:39:17;;;;;;;2.20;1.63;;;4.60;40.30;;;;;;10449886;28;20232;-69
2021/01/27 15:44:20;;;;;;;18.90;11.50;;;4.60;40.30;;;;;;10464814;28;20227;-69
2021/01/27 15:49:23;;;;;;;6.60;3.73;;;4.60;40.40;;;;;;10471134;28;20224;-68
2021/01/27 15:54:26;;;;;;;2.53;2.10;;;4.60;40.40;;;;;;10463088;28;20715;-73
2021/01/27 15:59:28;;;;;;;2.23;1.90;;;4.60;40.40;;;;;;10460665;28;20935;-72
2021/01/27 16:04:31;;;;;;;2.50;2.30;;;4.60;40.40;;;;;;10458340;28;20232;-69
2021/01/27 16:09:34;;;;;;;2.77;2.40;;;4.60;40.50;;;;;;10456900;28;20229;-69
2021/01/27 16:14:37;;;;;;;3.27;2.97;;;4.60;40.60;;;;;;10463045;28;20225;-69
2021/01/27 16:19:40;;;;;;;2.90;2.50;;;4.60;40.80;;;;;;10458579;28;20726;-69
2021/01/27 16:24:42;;;;;;;3.00;2.80;;;4.50;40.90;;;;;;10455824;28;20240;-69
2021/01/27 16:29:46;;;;;;;3.63;2.90;;;4.60;40.90;;;;;;10457052;28;20243;-70
2021/01/27 16:34:49;;;;;;;5.93;5.43;;;4.60;40.80;;;;;;10462702;28;20516;-70
2021/01/27 16:39:52;;;;;;;8.07;6.40;;;4.60;40.80;;;;;;10458736;28;20232;-69
2021/01/27 16:44:54;;;;;;;3.70;3.30;;;4.70;40.80;;;;;;10472082;28;20742;-69
2021/01/27 16:49:57;;;;;;;4.27;3.87;;;4.70;40.80;;;;;;10473687;28;20224;-69
2021/01/27 16:55:00;;;;;;;4.07;3.67;;;4.70;40.90;;;;;;10434251;28;20767;-69
2021/01/27 17:00:06;;;;;;;9.13;6.30;;;4.70;40.90;;;;;;10425399;28;20692;-70
2021/01/27 17:05:11;;;;;;;20.83;11.00;;;4.80;41.00;;;;;;10417039;28;20724;-70
2021/01/27 17:10:14;;;;;;;7.73;5.70;;;4.80;41.00;;;;;;10429862;28;20228;-69
2021/01/27 17:15:17;;;;;;;4.40;3.90;;;4.90;40.90;;;;;;10435496;28;20232;-69
2021/01/27 17:20:20;;;;;;;5.47;3.80;;;4.90;40.80;;;;;;10427212;28;20241;-69
2021/01/27 17:25:24;;;;;;;4.67;3.83;;;4.90;40.80;;;;;;10435342;28;20236;-69
2021/01/27 17:30:27;;;;;;;5.87;4.50;;;4.90;40.80;;;;;;10428216;28;20783;-70
2021/01/27 17:35:33;;;;;;;11.73;7.97;;;5.00;41.00;;;;;;10438391;28;20240;-70
2021/01/27 17:40:35;;;;;;;5.67;5.03;;;5.00;41.00;;;;;;10425138;28;20228;-70
2021/01/27 17:45:37;;;;;;;4.43;3.90;;;5.00;40.90;;;;;;10435681;28;20249;-70
2021/01/27 17:50:40;;;;;;;6.30;5.73;;;4.90;40.80;;;;;;10439977;28;20727;-70
2021/01/27 17:55:43;;;;;;;7.00;6.40;;;4.90;41.00;;;;;;10436608;28;20599;-70
2021/01/27 18:00:45;;;;;;;5.83;5.27;;;5.00;41.00;;;;;;10446501;28;20224;-70
2021/01/27 18:05:49;;;;;;;5.23;4.73;;;4.90;41.10;;;;;;10440268;28;20315;-70
2021/01/27 18:10:51;;;;;;;5.13;4.63;;;4.90;41.20;;;;;;10436373;28;20392;-70
2021/01/27 18:15:54;;;;;;;5.00;4.60;;;4.90;41.20;;;;;;10430616;28;20235;-69
2021/01/27 18:20:58;;;;;;;7.70;5.47;;;4.90;41.20;;;;;;10445541;28;20773;-69
2021/01/27 18:26:01;;;;;;;6.63;5.83;;;4.90;41.30;;;;;;10442091;28;20225;-69
2021/01/27 18:31:04;;;;;;;5.43;4.90;;;4.90;41.30;;;;;;10445461;28;20717;-69
2021/01/27 18:36:08;;;;;;;5.83;5.33;;;4.90;41.40;;;;;;10464815;28;20659;-69
2021/01/27 18:41:12;;;;;;;8.80;7.53;;;4.90;41.50;;;;;;10479456;28;20606;-69
2021/01/27 18:46:15;;;;;;;6.17;5.23;;;4.80;41.40;;;;;;10476335;28;20232;-69
2021/01/27 18:51:18;;;;;;;6.73;6.13;;;4.80;41.50;;;;;;10485782;28;20779;-69
2021/01/27 18:56:20;;;;;;;6.37;5.77;;;4.80;41.60;;;;;;10466639;28;20224;-69
2021/01/27 19:01:23;;;;;;;6.70;6.10;;;4.80;41.60;;;;;;10475988;28;20256;-69
2021/01/27 19:06:26;;;;;;;7.87;7.17;;;4.80;41.70;;;;;;10467275;28;20271;-69
2021/01/27 19:11:29;;;;;;;6.17;5.57;;;4.80;41.80;;;;;;10453811;28;20304;-69
2021/01/27 19:16:31;;;;;;;5.57;5.17;;;4.80;41.80;;;;;;10459856;28;20229;-70
2021/01/27 19:21:34;;;;;;;6.30;4.80;;;4.70;41.70;;;;;;10456491;28;20224;-70
2021/01/27 19:26:37;;;;;;;5.30;4.90;;;4.70;42.00;;;;;;10468949;28;20221;-71
2021/01/27 19:31:39;;;;;;;4.77;4.37;;;4.70;41.90;;;;;;10466578;28;20223;-70
2021/01/27 19:36:42;;;;;;;6.47;5.10;;;4.70;42.00;;;;;;10470879;28;20232;-70
2021/01/27 19:41:45;;;;;;;6.53;5.77;;;4.70;42.00;;;;;;10449623;28;20221;-71
2021/01/27 19:46:47;;;;;;;6.17;5.63;;;4.70;42.10;;;;;;10470722;28;20235;-71
2021/01/27 19:51:51;;;;;;;5.87;5.37;;;4.70;42.20;;;;;;10457606;28;20253;-71
2021/01/27 19:56:53;;;;;;;5.57;5.03;;;4.60;42.40;;;;;;10461568;28;20233;-71
2021/01/27 20:01:55;;;;;;;5.67;5.17;;;4.60;42.20;;;;;;10455972;28;20304;-71
2021/01/27 20:06:58;;;;;;;4.67;4.27;;;4.70;42.30;;;;;;10456626;28;20244;-71
2021/01/27 20:12:01;;;;;;;4.47;4.17;;;4.60;42.40;;;;;;10454463;28;20748;-71
2021/01/27 20:17:03;;;;;;;4.13;3.83;;;4.70;42.50;;;;;;10453998;28;20647;-71
2021/01/27 20:22:06;;;;;;;4.27;3.97;;;4.70;42.50;;;;;;10449495;28;20280;-71
2021/01/27 20:27:09;;;;;;;4.20;3.90;;;4.70;42.50;;;;;;10454255;28;20577;-71
2021/01/27 20:32:11;;;;;;;4.57;4.17;;;4.80;42.60;;;;;;10453541;28;20229;-71
2021/01/27 20:37:14;;;;;;;4.80;4.40;;;4.80;42.60;;;;;;10459228;28;20343;-71
2021/01/27 20:42:17;;;;;;;4.77;4.40;;;4.90;42.60;;;;;;10455717;28;20225;-71
2021/01/27 20:47:19;;;;;;;5.60;5.20;;;4.90;42.60;;;;;;10466969;28;20228;-71
2021/01/27 20:52:22;;;;;;;4.90;4.60;;;4.90;42.60;;;;;;10450098;28;20252;-71
2021/01/27 20:57:24;;;;;;;5.23;4.83;;;5.00;42.70;;;;;;10449644;28;20228;-71
2021/01/27 21:02:28;;;;;;;5.40;5.00;;;5.00;42.50;;;;;;10451631;28;20228;-73
2021/01/27 21:07:31;;;;;;;5.40;5.00;;;5.00;42.50;;;;;;10458611;28;20243;-73
2021/01/27 21:12:33;;;;;;;5.87;5.40;;;5.00;42.70;;;;;;10459710;28;20217;-73
2021/01/27 21:17:36;;;;;;;5.80;5.40;;;5.00;42.60;;;;;;10454839;28;20232;-73
2021/01/27 21:22:39;;;;;;;5.80;5.40;;;5.00;42.70;;;;;;10460938;28;20224;-73
2021/01/27 21:27:41;;;;;;;6.17;5.67;;;5.00;42.70;;;;;;10468805;28;20221;-73
2021/01/27 21:32:44;;;;;;;6.90;6.30;;;5.00;42.70;;;;;;10462430;28;20815;-73
2021/01/27 21:37:47;;;;;;;7.30;6.80;;;5.00;42.70;;;;;;10465535;28;20888;-73
2021/01/27 21:42:50;;;;;;;7.10;6.50;;;5.00;42.70;;;;;;10462787;28;20225;-73
2021/01/27 21:47:52;;;;;;;7.33;6.73;;;5.00;42.70;;;;;;10465046;28;20229;-73
2021/01/27 21:52:56;;;;;;;7.10;6.43;;;5.00;43.40;;;;;;10465494;28;20696;-73
2021/01/27 21:57:58;;;;;;;7.90;7.20;;;5.00;42.90;;;;;;10461180;28;20708;-73
2021/01/27 22:03:01;;;;;;;6.83;6.33;;;5.00;42.70;;;;;;10460258;28;20235;-73
2021/01/27 22:08:05;;;;;;;7.73;7.03;;;5.10;42.80;;;;;;10461997;28;20304;-73
2021/01/27 22:13:08;;;;;;;7.90;7.30;;;5.10;42.90;;;;;;10457878;28;20217;-73
2021/01/27 22:18:10;;;;;;;8.37;7.67;;;5.10;42.80;;;;;;10469019;28;20587;-73
2021/01/27 22:23:14;;;;;;;8.30;7.60;;;5.10;42.80;;;;;;10466545;28;20239;-73
2021/01/27 22:28:16;;;;;;;9.10;8.30;;;5.10;43.10;;;;;;10455422;28;20231;-73
2021/01/27 22:33:19;;;;;;;8.63;7.93;;;5.10;42.90;;;;;;10459463;28;20220;-73
2021/01/27 22:38:22;;;;;;;8.67;7.97;;;5.10;43.80;;;;;;10461880;28;20256;-73
2021/01/27 22:43:25;;;;;;;8.60;7.90;;;5.10;43.10;;;;;;10456403;28;20709;-73
2021/01/27 22:48:27;;;;;;;8.43;7.80;;;5.10;42.90;;;;;;10461175;28;20765;-73
2021/01/27 22:53:30;;;;;;;7.83;7.23;;;5.10;43.10;;;;;;10455020;28;20224;-73
2021/01/27 22:58:32;;;;;;;8.83;8.13;;;5.10;43.40;;;;;;10460958;28;20304;-73
2021/01/27 23:03:37;;;;;;;8.50;7.80;;;5.20;43.30;;;;;;10464390;28;20250;-73
2021/01/27 23:08:41;;;;;;;8.83;8.13;;;5.20;43.50;;;;;;10490524;28;20740;-73
2021/01/27 23:13:48;;;;;;;9.33;8.53;;;5.20;43.50;;;;;;10466223;28;20232;-73
2021/01/27 23:18:50;;;;;;;8.57;7.87;;;5.20;43.40;;;;;;10481143;28;20232;-73
2021/01/27 23:23:53;;;;;;;8.97;8.27;;;5.20;43.40;;;;;;10473471;28;20267;-73
2021/01/27 23:28:56;;;;;;;9.10;8.40;;;5.20;43.80;;;;;;10483832;28;20259;-74
2021/01/27 23:33:58;;;;;;;8.97;8.27;;;5.20;43.70;;;;;;10469829;28;20701;-73
2021/01/27 23:39:01;;;;;;;8.17;7.57;;;5.20;43.80;;;;;;10480442;28;20736;-73
2021/01/27 23:44:05;;;;;;;9.03;8.37;;;5.30;43.90;;;;;;10456276;28;20677;-72
2021/01/27 23:49:07;;;;;;;8.43;7.83;;;5.30;43.70;;;;;;10465308;28;20244;-73
2021/01/27 23:54:11;;;;;;;9.13;8.43;;;5.30;43.60;;;;;;10460577;28;21976;-73
2021/01/27 23:59:13;;;;;;;9.07;8.37;;;5.40;43.80;;;;;;10461828;28;20225;-73
